Time;durP1;ratioP1;P1;durP2;ratioP2;P2;SDS_P1;SDS_P2;PMS_P1;PMS_P2;Temp;Humidity;BMP_temperature;BMP_pressure;BME280_temperature;BME280_humidity;BME280_pressure;Samples;Min_cycle;Max_cycle;Signal;HPM_P1;HPM_P2
2021/10/27 00:01:47;;;;;;;14.57;8.43;;;10.40;99.90;;;;;;5071136;28;20202;-74
2021/10/27 00:04:14;;;;;;;21.00;14.47;;;10.40;99.90;;;;;;5070185;28;20210;-75
2021/10/27 00:06:42;;;;;;;16.20;9.90;;;10.40;99.90;;;;;;5070652;28;20244;-75
2021/10/27 00:09:10;;;;;;;12.60;10.43;;;10.40;99.90;;;;;;5069792;28;20225;-80
2021/10/27 00:11:37;;;;;;;13.63;9.83;;;10.30;99.90;;;;;;5070544;28;20256;-76
2021/10/27 00:14:04;;;;;;;15.87;9.70;;;10.40;99.90;;;;;;5069660;28;20287;-75
2021/10/27 00:16:33;;;;;;;13.47;8.00;;;10.30;99.90;;;;;;5070658;28;20210;-74
2021/10/27 00:19:00;;;;;;;14.37;11.23;;;10.30;99.90;;;;;;5070285;28;20206;-80
2021/10/27 00:21:27;;;;;;;12.93;9.70;;;10.30;99.90;;;;;;5070243;28;20597;-74
2021/10/27 00:23:55;;;;;;;13.77;10.67;;;10.30;99.90;;;;;;5069923;28;20635;-79
2021/10/27 00:26:23;;;;;;;14.83;10.40;;;10.20;99.90;;;;;;5070069;28;20202;-77
2021/10/27 00:28:51;;;;;;;17.80;11.23;;;10.20;99.90;;;;;;5070417;28;20264;-80
2021/10/27 00:31:18;;;;;;;18.00;11.47;;;10.20;99.90;;;;;;5070460;28;20206;-76
2021/10/27 00:33:45;;;;;;;12.33;9.97;;;10.10;99.90;;;;;;5070568;28;20221;-78
2021/10/27 00:36:12;;;;;;;14.33;10.33;;;10.20;99.90;;;;;;5069699;28;20252;-80
2021/10/27 00:38:39;;;;;;;14.77;10.00;;;10.10;99.90;;;;;;5069977;28;20263;-77
2021/10/27 00:41:07;;;;;;;17.40;9.80;;;10.00;99.90;;;;;;5072678;28;20202;-73
2021/10/27 00:43:36;;;;;;;12.20;8.70;;;10.00;99.90;;;;;;5073987;28;20661;-75
2021/10/27 00:46:03;;;;;;;13.70;8.60;;;10.00;99.90;;;;;;5074131;28;20271;-82
2021/10/27 00:48:31;;;;;;;10.03;8.10;;;10.10;99.90;;;;;;5074255;28;20206;-81
2021/10/27 00:50:58;;;;;;;13.40;9.17;;;10.00;99.90;;;;;;5073766;28;20206;-73
2021/10/27 00:53:25;;;;;;;10.83;9.07;;;10.00;99.90;;;;;;5073870;28;20782;-73
2021/10/27 00:55:53;;;;;;;12.67;8.50;;;10.00;99.90;;;;;;5073671;28;20205;-73
2021/10/27 00:58:20;;;;;;;14.03;8.77;;;10.00;99.90;;;;;;5074235;28;20207;-73
2021/10/27 01:00:49;;;;;;;16.80;10.20;;;10.00;99.90;;;;;;5074190;28;20210;-76
2021/10/27 01:03:16;;;;;;;18.80;9.60;;;10.00;99.90;;;;;;5074003;28;20214;-78
2021/10/27 01:05:43;;;;;;;10.83;9.13;;;10.00;99.90;;;;;;5073433;28;20611;-78
2021/10/27 01:08:11;;;;;;;15.20;9.30;;;10.00;99.90;;;;;;5073517;28;20206;-78
2021/10/27 01:10:38;;;;;;;11.80;8.03;;;9.80;99.90;;;;;;5072506;28;20695;-76
2021/10/27 01:13:05;;;;;;;13.47;8.57;;;9.80;99.90;;;;;;5073392;28;20234;-78
2021/10/27 01:15:32;;;;;;;12.30;8.20;;;9.80;99.90;;;;;;5073407;28;20205;-82
2021/10/27 01:18:01;;;;;;;13.03;8.53;;;9.80;99.90;;;;;;5073283;28;20591;-82
2021/10/27 01:20:29;;;;;;;11.67;7.63;;;9.80;99.90;;;;;;5073086;28;20206;-73
2021/10/27 01:22:56;;;;;;;15.00;9.13;;;9.80;99.90;;;;;;5073243;28;20279;-79
2021/10/27 01:25:23;;;;;;;12.97;8.67;;;9.70;99.90;;;;;;5073442;28;20206;-81
2021/10/27 01:27:52;;;;;;;14.73;8.83;;;9.70;99.90;;;;;;5073397;28;20670;-74
2021/10/27 01:30:22;;;;;;;13.50;9.40;;;9.70;99.90;;;;;;5073367;28;20233;-74
2021/10/27 01:32:50;;;;;;;15.13;10.73;;;9.70;99.90;;;;;;5073470;28;20782;-74
2021/10/27 01:35:18;;;;;;;13.57;8.13;;;9.70;99.90;;;;;;5073078;28;20248;-75
2021/10/27 01:37:47;;;;;;;12.43;8.23;;;9.70;99.90;;;;;;5073545;28;20205;-75
2021/10/27 01:40:15;;;;;;;14.07;9.07;;;9.70;99.90;;;;;;5073135;28;20206;-86
2021/10/27 01:42:43;;;;;;;13.13;9.80;;;9.60;99.90;;;;;;5073683;28;20202;-84
2021/10/27 01:45:10;;;;;;;18.17;10.17;;;9.50;99.90;;;;;;5072810;28;20206;-82
2021/10/27 01:47:42;;;;;;;9.40;8.40;;;9.60;99.90;;;;;;5073359;28;20210;-77
2021/10/27 01:50:10;;;;;;;12.63;7.83;;;9.60;99.90;;;;;;5072777;28;20592;-84
2021/10/27 01:52:36;;;;;;;12.07;8.20;;;9.50;99.90;;;;;;5072385;28;20749;-74
2021/10/27 01:55:06;;;;;;;16.10;8.63;;;9.60;99.90;;;;;;5072778;28;20262;-75
2021/10/27 01:57:33;;;;;;;15.73;8.53;;;9.60;99.90;;;;;;5072928;28;20206;-74
2021/10/27 02:00:00;;;;;;;12.17;8.77;;;9.60;99.90;;;;;;5072433;28;20632;-74
2021/10/27 02:02:27;;;;;;;10.23;8.30;;;9.40;99.90;;;;;;5072483;28;20214;-77
2021/10/27 02:04:54;;;;;;;16.47;8.23;;;9.40;99.90;;;;;;5072544;28;20210;-83
2021/10/27 02:07:21;;;;;;;9.13;7.33;;;9.40;99.90;;;;;;5072956;28;20252;-74
2021/10/27 02:09:48;;;;;;;12.50;9.10;;;9.40;99.90;;;;;;5072767;28;20214;-78
2021/10/27 02:12:16;;;;;;;11.70;7.17;;;9.40;99.90;;;;;;5072519;28;20255;-75
2021/10/27 02:14:43;;;;;;;11.30;7.70;;;9.40;99.90;;;;;;5072571;28;20238;-75
2021/10/27 02:17:10;;;;;;;9.47;7.37;;;9.40;99.90;;;;;;5072112;28;20257;-83
2021/10/27 02:19:37;;;;;;;9.20;7.37;;;9.30;99.90;;;;;;5072133;28;20206;-82
2021/10/27 02:22:04;;;;;;;14.80;8.50;;;9.30;99.90;;;;;;5072170;28;20256;-74
2021/10/27 02:24:31;;;;;;;9.93;7.27;;;9.30;99.90;;;;;;5072484;28;20210;-74
2021/10/27 02:26:58;;;;;;;9.63;7.43;;;9.20;99.90;;;;;;5072030;28;20210;-74
2021/10/27 02:29:27;;;;;;;10.50;7.73;;;9.20;99.90;;;;;;5072407;28;20214;-74
2021/10/27 02:31:54;;;;;;;10.20;7.90;;;9.20;99.90;;;;;;5071692;28;20238;-83
2021/10/27 02:34:21;;;;;;;11.43;8.33;;;9.20;99.90;;;;;;5072506;28;20315;-75
2021/10/27 02:36:48;;;;;;;15.57;10.40;;;9.20;99.90;;;;;;5072586;28;20210;-74
2021/10/27 02:39:15;;;;;;;15.90;9.73;;;9.10;99.90;;;;;;5072120;28;20214;-73
2021/10/27 02:41:42;;;;;;;14.13;10.80;;;9.10;99.90;;;;;;5072146;28;20670;-84
2021/10/27 02:44:09;;;;;;;15.30;11.63;;;9.10;99.90;;;;;;5072033;28;20213;-71
2021/10/27 02:46:38;;;;;;;19.90;11.17;;;9.10;99.90;;;;;;5071648;28;20627;-71
2021/10/27 02:49:05;;;;;;;14.50;10.13;;;9.10;99.90;;;;;;5071492;28;20202;-80
2021/10/27 02:51:32;;;;;;;23.27;13.07;;;9.10;99.90;;;;;;5072184;28;20207;-71
2021/10/27 02:53:59;;;;;;;14.67;10.87;;;9.10;99.90;;;;;;5071206;28;20701;-71
2021/10/27 02:56:26;;;;;;;15.57;12.07;;;9.10;99.90;;;;;;5071815;28;20207;-72
2021/10/27 02:58:53;;;;;;;15.70;13.13;;;9.10;99.90;;;;;;5071336;28;20263;-71
2021/10/27 03:01:20;;;;;;;22.43;13.40;;;9.20;99.90;;;;;;5071946;28;20619;-72
2021/10/27 03:03:48;;;;;;;18.93;14.03;;;9.20;99.90;;;;;;5071051;28;20751;-72
2021/10/27 03:06:15;;;;;;;15.67;12.40;;;9.40;99.90;;;;;;5071748;28;20202;-80
2021/10/27 03:08:42;;;;;;;12.33;8.80;;;9.50;99.90;;;;;;5071661;28;20203;-79
2021/10/27 03:11:11;;;;;;;11.40;7.20;;;9.50;99.90;;;;;;5070800;28;20206;-75
2021/10/27 03:13:37;;;;;;;9.97;7.53;;;9.50;99.90;;;;;;5071672;28;20276;-80
2021/10/27 03:16:05;;;;;;;10.80;7.30;;;9.50;99.90;;;;;;5070561;28;20218;-72
2021/10/27 03:18:32;;;;;;;8.93;7.10;;;9.50;99.90;;;;;;5071182;28;20669;-79
2021/10/27 03:21:00;;;;;;;9.80;6.97;;;9.50;99.90;;;;;;5071005;28;20256;-71
2021/10/27 03:23:27;;;;;;;10.23;6.80;;;9.50;99.90;;;;;;5070921;28;20260;-77
2021/10/27 03:25:54;;;;;;;10.63;6.33;;;9.50;99.90;;;;;;5071064;28;20287;-79
2021/10/27 03:28:21;;;;;;;8.37;6.50;;;9.50;99.90;;;;;;5071243;28;20272;-80
2021/10/27 03:30:48;;;;;;;9.57;6.43;;;9.60;99.90;;;;;;5071373;28;20221;-72
2021/10/27 03:33:15;;;;;;;9.10;6.97;;;9.60;99.90;;;;;;5070900;28;20297;-81
2021/10/27 03:35:42;;;;;;;6.80;6.07;;;9.70;99.90;;;;;;5071281;28;20202;-80
2021/10/27 03:38:11;;;;;;;11.07;7.07;;;9.80;99.90;;;;;;5070648;28;20218;-78
2021/10/27 03:40:38;;;;;;;9.83;6.77;;;9.80;99.90;;;;;;5070563;28;20609;-74
2021/10/27 03:43:05;;;;;;;9.47;6.43;;;9.80;99.90;;;;;;5070770;28;20213;-79
2021/10/27 03:45:32;;;;;;;12.60;6.43;;;9.80;99.90;;;;;;5070598;28;20206;-73
2021/10/27 03:48:00;;;;;;;9.07;6.97;;;9.70;99.90;;;;;;5070456;28;20224;-80
2021/10/27 03:50:27;;;;;;;8.47;6.50;;;9.70;99.90;;;;;;5070819;28;20212;-72
2021/10/27 03:52:54;;;;;;;11.03;6.87;;;9.70;99.90;;;;;;5070660;28;20268;-79
2021/10/27 03:55:22;;;;;;;8.47;6.27;;;9.60;99.90;;;;;;5070608;28;20238;-72
2021/10/27 03:57:49;;;;;;;7.10;5.57;;;9.40;99.90;;;;;;5070971;28;20673;-73
2021/10/27 04:00:16;;;;;;;10.20;6.70;;;9.30;99.90;;;;;;5070612;28;20283;-78
2021/10/27 04:02:44;;;;;;;10.13;6.47;;;9.10;99.90;;;;;;5070520;28;20264;-72
2021/10/27 04:05:11;;;;;;;9.47;7.33;;;9.10;99.90;;;;;;5070052;28;20203;-78
2021/10/27 04:07:38;;;;;;;11.73;6.40;;;9.00;99.90;;;;;;5070528;28;20205;-78
2021/10/27 04:10:07;;;;;;;8.03;5.83;;;9.00;99.90;;;;;;5068980;28;20210;-72
2021/10/27 04:12:36;;;;;;;7.20;6.50;;;8.90;99.90;;;;;;5070517;28;20214;-72
2021/10/27 04:15:05;;;;;;;10.07;6.73;;;8.90;99.90;;;;;;5070136;28;20321;-75
2021/10/27 04:17:32;;;;;;;8.97;7.97;;;8.80;99.90;;;;;;5070182;28;20693;-74
2021/10/27 04:19:59;;;;;;;12.23;7.43;;;8.80;99.90;;;;;;5069707;28;20206;-71
2021/10/27 04:22:27;;;;;;;8.70;6.93;;;8.80;99.90;;;;;;5070417;28;20666;-72
2021/10/27 04:24:54;;;;;;;12.30;6.97;;;8.80;99.90;;;;;;5070185;28;20234;-72
2021/10/27 04:27:22;;;;;;;9.53;7.23;;;8.80;99.90;;;;;;5070386;28;20252;-75
2021/10/27 04:29:50;;;;;;;8.37;6.13;;;8.70;99.90;;;;;;5070145;28;20206;-72
2021/10/27 04:32:17;;;;;;;8.93;7.20;;;8.70;99.90;;;;;;5070783;28;20260;-72
2021/10/27 04:34:45;;;;;;;8.17;6.20;;;8.70;99.90;;;;;;5070481;28;20291;-72
2021/10/27 04:37:13;;;;;;;8.97;6.63;;;8.50;99.90;;;;;;5069984;28;20595;-72
2021/10/27 04:39:39;;;;;;;10.00;6.17;;;8.40;99.90;;;;;;5070305;28;20260;-72
2021/10/27 04:42:07;;;;;;;9.17;7.07;;;8.40;99.90;;;;;;5069457;28;20616;-73
2021/10/27 04:44:34;;;;;;;10.33;7.93;;;8.30;99.90;;;;;;5066387;28;20271;-81
2021/10/27 04:47:03;;;;;;;8.97;6.67;;;8.40;99.90;;;;;;5065474;28;20222;-81
2021/10/27 04:49:31;;;;;;;7.90;6.70;;;8.30;99.90;;;;;;5070498;28;20202;-72
2021/10/27 04:51:58;;;;;;;10.90;5.83;;;8.30;99.90;;;;;;5069682;28;20248;-81
2021/10/27 04:54:25;;;;;;;8.47;7.13;;;8.30;99.90;;;;;;5070158;28;20222;-74
2021/10/27 04:56:52;;;;;;;8.50;6.40;;;8.40;99.90;;;;;;5069235;28;20206;-73
2021/10/27 04:59:19;;;;;;;8.27;6.80;;;8.30;99.90;;;;;;5069581;28;20206;-72
2021/10/27 05:01:47;;;;;;;10.73;6.10;;;8.40;99.90;;;;;;5070629;28;20202;-80
2021/10/27 05:04:16;;;;;;;6.67;5.57;;;8.30;99.90;;;;;;5069404;28;20293;-82
2021/10/27 05:06:43;;;;;;;8.90;6.23;;;7.90;99.90;;;;;;5070469;28;20289;-78
2021/10/27 05:09:10;;;;;;;8.90;6.07;;;8.00;99.90;;;;;;5069349;28;20245;-78
2021/10/27 05:11:38;;;;;;;16.90;6.77;;;8.10;99.90;;;;;;5069893;28;20252;-72
2021/10/27 05:14:05;;;;;;;8.43;6.23;;;8.30;99.90;;;;;;5069007;28;20226;-75
2021/10/27 05:16:32;;;;;;;10.47;6.77;;;8.30;99.90;;;;;;5070305;28;20202;-77
2021/10/27 05:18:59;;;;;;;7.13;6.40;;;8.30;99.90;;;;;;5069455;28;20222;-79
2021/10/27 05:21:27;;;;;;;11.40;6.77;;;8.20;99.90;;;;;;5069558;28;20210;-80
2021/10/27 05:23:54;;;;;;;13.43;6.17;;;8.20;99.90;;;;;;5062485;28;20206;-81
2021/10/27 05:26:23;;;;;;;13.17;6.87;;;8.10;99.90;;;;;;5071046;28;20214;-81
2021/10/27 05:28:50;;;;;;;9.70;7.27;;;8.20;99.90;;;;;;5060232;28;20269;-80
2021/10/27 05:31:17;;;;;;;10.17;6.53;;;8.20;99.90;;;;;;5073954;28;20225;-76
2021/10/27 05:33:44;;;;;;;7.93;6.20;;;8.30;99.90;;;;;;5072911;28;20674;-76
2021/10/27 05:36:12;;;;;;;7.63;6.17;;;8.30;99.90;;;;;;5072843;28;20685;-75
2021/10/27 05:38:41;;;;;;;9.27;6.40;;;8.40;99.90;;;;;;5072872;28;20668;-77
2021/10/27 05:41:08;;;;;;;13.63;6.80;;;8.40;99.90;;;;;;5072532;28;20205;-75
2021/10/27 05:43:37;;;;;;;12.53;6.70;;;8.40;99.90;;;;;;5073224;28;20206;-78
2021/10/27 05:46:04;;;;;;;14.03;7.20;;;8.40;99.90;;;;;;5073050;28;20276;-78
2021/10/27 05:48:35;;;;;;;9.87;6.30;;;8.40;99.90;;;;;;5072983;28;20681;-77
2021/10/27 05:51:14;;;;;;;6.43;5.53;;;8.40;99.90;;;;;;5072766;28;20202;-78
2021/10/27 05:56:27;;;;;;;7.80;5.43;;;8.20;99.90;;;;;;5073290;28;20220;-75
2021/10/27 06:01:29;;;;;;;6.63;5.57;;;8.20;99.90;;;;;;5075758;22;20242;-68
2021/10/27 06:03:57;;;;;;;7.83;5.70;;;8.20;99.90;;;;;;5046492;28;20210;-70
2021/10/27 06:06:24;;;;;;;10.63;6.03;;;8.20;99.90;;;;;;5052929;28;20575;-68
2021/10/27 06:08:55;;;;;;;8.63;5.57;;;8.20;99.90;;;;;;5052968;28;20207;-68
2021/10/27 06:11:22;;;;;;;8.63;5.60;;;8.20;99.90;;;;;;5051948;28;20218;-70
2021/10/27 06:13:50;;;;;;;7.77;5.80;;;8.20;99.90;;;;;;5053217;28;20214;-69
2021/10/27 06:16:17;;;;;;;9.07;6.03;;;8.30;99.90;;;;;;5052490;28;20242;-68
2021/10/27 06:18:45;;;;;;;8.97;5.60;;;8.30;99.90;;;;;;5052282;28;20210;-67
2021/10/27 06:21:15;;;;;;;8.27;5.43;;;8.20;99.90;;;;;;5052068;28;20252;-68
2021/10/27 06:23:42;;;;;;;7.83;5.40;;;8.30;99.90;;;;;;5052198;28;20236;-69
2021/10/27 06:26:11;;;;;;;7.37;5.33;;;8.30;99.90;;;;;;5052206;28;20214;-68
2021/10/27 06:28:43;;;;;;;6.93;5.80;;;8.30;99.90;;;;;;5052331;28;20229;-68
2021/10/27 06:31:13;;;;;;;21.53;6.43;;;8.40;99.90;;;;;;5051614;28;20207;-68
2021/10/27 06:36:28;;;;;;;9.07;6.63;;;8.10;99.90;;;;;;5051481;28;20601;-67
2021/10/27 06:39:13;;;;;;;9.90;6.53;;;8.00;99.90;;;;;;5050982;28;20207;-67
2021/10/27 06:47:27;;;;;;;8.13;6.07;;;8.60;99.90;;;;;;4971227;28;20252;-66
2021/10/27 06:49:54;;;;;;;12.07;6.00;;;8.60;99.90;;;;;;5015354;28;20215;-67
2021/10/27 06:52:21;;;;;;;7.23;5.30;;;8.60;99.90;;;;;;5051548;28;20211;-68
2021/10/27 06:54:51;;;;;;;7.50;6.10;;;8.60;99.90;;;;;;5051791;28;20289;-67
2021/10/27 06:57:24;;;;;;;10.40;6.37;;;8.60;99.90;;;;;;5051513;28;20255;-67
2021/10/27 06:59:55;;;;;;;8.13;5.63;;;8.60;99.90;;;;;;5051547;28;20210;-69
2021/10/27 07:02:46;;;;;;;7.33;5.63;;;8.70;99.90;;;;;;5051762;28;20218;-69
2021/10/27 07:05:27;;;;;;;9.33;6.43;;;8.70;99.90;;;;;;5040245;28;20707;-69
2021/10/27 07:16:17;;;;;;;10.27;6.27;;;9.10;99.90;;;;;;5050802;28;20720;-69
2021/10/27 07:18:44;;;;;;;10.00;6.47;;;9.20;99.90;;;;;;5051426;28;20206;-69
2021/10/27 07:21:11;;;;;;;9.37;6.93;;;9.10;99.90;;;;;;5051224;28;20206;-69
2021/10/27 07:23:40;;;;;;;10.13;7.30;;;9.20;99.90;;;;;;5051385;28;20244;-69
2021/10/27 07:26:08;;;;;;;17.27;9.90;;;9.30;99.90;;;;;;5050667;28;20289;-68
2021/10/27 07:28:36;;;;;;;19.70;10.37;;;9.30;99.90;;;;;;5050594;28;20249;-68
2021/10/27 07:31:04;;;;;;;19.23;9.97;;;9.50;99.90;;;;;;5051015;28;20211;-68
2021/10/27 07:33:33;;;;;;;20.63;10.73;;;9.60;99.90;;;;;;5050951;28;20623;-68
2021/10/27 07:36:04;;;;;;;18.53;10.43;;;9.60;99.90;;;;;;5050656;28;20621;-68
2021/10/27 07:41:15;;;;;;;15.20;7.60;;;9.80;99.90;;;;;;5050741;28;20212;-68
2021/10/27 07:43:44;;;;;;;13.67;7.50;;;9.80;99.90;;;;;;5050703;28;20260;-68
2021/10/27 07:46:12;;;;;;;14.17;8.50;;;9.80;99.90;;;;;;5050684;28;20215;-68
2021/10/27 07:48:39;;;;;;;15.77;9.50;;;9.80;99.90;;;;;;5050417;28;20674;-68
2021/10/27 07:51:05;;;;;;;14.03;7.80;;;9.90;99.90;;;;;;5050549;28;20206;-69
2021/10/27 07:53:33;;;;;;;19.17;8.73;;;9.90;99.90;;;;;;5050659;28;20253;-69
2021/10/27 07:56:00;;;;;;;19.43;9.33;;;9.80;99.90;;;;;;5050406;28;20242;-68
2021/10/27 07:58:28;;;;;;;20.27;8.57;;;9.70;99.90;;;;;;5050841;28;20206;-69
2021/10/27 08:00:58;;;;;;;18.20;10.20;;;9.60;99.90;;;;;;5050463;28;20634;-69
2021/10/27 08:03:25;;;;;;;18.57;8.47;;;9.50;99.90;;;;;;5050909;28;20207;-68
2021/10/27 08:05:52;;;;;;;17.57;10.03;;;9.50;99.90;;;;;;5050712;28;20207;-68
2021/10/27 08:08:22;;;;;;;13.60;8.57;;;9.70;99.90;;;;;;5050229;28;20206;-68
2021/10/27 08:10:50;;;;;;;13.80;9.67;;;9.90;99.90;;;;;;5050543;28;20294;-68
2021/10/27 08:13:18;;;;;;;18.20;9.07;;;10.10;99.90;;;;;;5050206;28;20256;-68
2021/10/27 08:15:45;;;;;;;11.83;7.80;;;10.30;99.90;;;;;;5050384;28;20230;-69
2021/10/27 08:18:15;;;;;;;14.83;9.03;;;10.00;99.90;;;;;;5049967;28;20298;-69
2021/10/27 08:20:43;;;;;;;10.97;7.23;;;9.70;99.90;;;;;;5050559;28;20264;-68
2021/10/27 08:23:12;;;;;;;17.23;9.10;;;10.00;99.90;;;;;;5049981;28;20630;-69
2021/10/27 08:25:42;;;;;;;13.30;7.83;;;9.90;99.90;;;;;;5050313;28;20203;-68
2021/10/27 08:28:13;;;;;;;12.33;8.40;;;10.20;99.90;;;;;;5049989;28;20238;-68
2021/10/27 08:30:47;;;;;;;15.67;9.20;;;10.30;99.90;;;;;;5050219;28;20555;-69
2021/10/27 08:33:21;;;;;;;16.70;8.50;;;10.60;99.90;;;;;;5049642;28;20207;-68
2021/10/27 08:35:49;;;;;;;16.60;8.07;;;10.70;99.90;;;;;;5050308;28;20337;-68
2021/10/27 08:38:16;;;;;;;12.37;8.10;;;10.80;99.90;;;;;;5049956;28;20700;-68
2021/10/27 08:40:44;;;;;;;22.13;8.63;;;10.80;99.90;;;;;;5036501;28;20268;-69
2021/10/27 08:43:11;;;;;;;11.90;7.50;;;11.10;99.90;;;;;;5049740;28;20213;-69
2021/10/27 08:45:39;;;;;;;10.67;7.53;;;11.00;99.90;;;;;;5050175;28;20302;-69
2021/10/27 08:48:08;;;;;;;13.67;8.23;;;11.00;99.90;;;;;;5049756;28;20211;-68
2021/10/27 08:50:37;;;;;;;16.30;10.23;;;11.20;99.90;;;;;;5050116;28;20205;-69
2021/10/27 08:53:05;;;;;;;19.83;10.70;;;10.70;99.90;;;;;;5049703;28;20207;-69
2021/10/27 08:55:33;;;;;;;15.37;9.33;;;10.40;99.90;;;;;;5049879;28;20226;-69
2021/10/27 08:58:01;;;;;;;11.27;8.20;;;10.70;99.90;;;;;;5049515;28;20211;-70
2021/10/27 09:00:34;;;;;;;12.73;9.27;;;11.10;99.90;;;;;;5050008;28;20261;-69
2021/10/27 09:03:10;;;;;;;15.53;11.30;;;11.00;99.90;;;;;;5053799;28;20210;-69
2021/10/27 09:34:28;;;;;;;16.80;11.23;;;11.40;99.90;;;;;;5041836;28;20214;-69
2021/10/27 10:04:02;;;;;;;14.43;8.60;;;12.00;99.90;;;;;;5041866;28;20320;-69
2021/10/27 10:05:27;;;;;;;12.93;8.73;;;12.10;99.90;;;;;;5051638;28;20209;-69
2021/10/27 10:07:55;;;;;;;14.47;9.97;;;11.80;99.90;;;;;;5040676;28;20253;-69
2021/10/27 10:10:23;;;;;;;12.77;9.43;;;11.90;99.90;;;;;;5052767;28;20207;-69
2021/10/27 10:12:56;;;;;;;12.90;9.40;;;11.80;99.90;;;;;;5052445;28;20206;-69
2021/10/27 10:15:27;;;;;;;17.60;11.27;;;11.90;99.90;;;;;;5052205;28;20219;-69
2021/10/27 10:17:55;;;;;;;12.53;9.63;;;12.20;99.90;;;;;;5047308;28;20678;-69
2021/10/27 10:20:23;;;;;;;18.67;11.80;;;12.30;99.90;;;;;;5045531;28;20739;-69
2021/10/27 10:22:51;;;;;;;18.40;11.30;;;12.60;99.90;;;;;;5052297;28;20229;-69
2021/10/27 10:25:34;;;;;;;14.77;10.70;;;12.60;99.90;;;;;;5051786;28;20211;-69
2021/10/27 10:28:21;;;;;;;18.58;12.02;;;13.30;99.90;;;;;;5051751;28;20713;-69
2021/10/27 10:30:55;;;;;;;11.32;9.60;;;13.20;99.90;;;;;;5041116;28;20215;-68
2021/10/27 10:33:35;;;;;;;12.30;10.40;;;13.00;99.90;;;;;;5047837;28;20206;-69
2021/10/27 10:36:05;;;;;;;16.70;10.77;;;12.50;99.90;;;;;;5051275;28;20237;-69
2021/10/27 10:38:47;;;;;;;15.98;12.05;;;12.50;99.90;;;;;;5051801;28;20206;-69
2021/10/27 10:41:43;;;;;;;16.35;12.25;;;12.50;99.90;;;;;;5051686;28;20199;-68
2021/10/27 11:03:03;;;;;;;32.70;24.40;;;13.20;99.90;;;;;;5051193;28;20241;-69
2021/10/27 11:23:18;;;;;;;36.22;23.70;;;14.00;99.90;;;;;;5050947;28;20261;-71
2021/10/27 11:26:04;;;;;;;34.83;22.80;;;14.30;99.90;;;;;;5050970;28;20289;-71
2021/10/27 11:37:30;;;;;;;23.63;16.08;;;14.20;99.90;;;;;;5051049;28;20249;-71
2021/10/27 11:40:06;;;;;;;27.92;16.17;;;14.50;99.90;;;;;;5051121;28;20202;-71
2021/10/27 11:42:44;;;;;;;21.00;15.02;;;14.60;99.90;;;;;;5050890;28;20199;-71
2021/10/27 11:45:14;;;;;;;20.75;15.13;;;14.70;99.90;;;;;;5050577;28;20206;-71
2021/10/27 11:47:45;;;;;;;19.52;14.25;;;14.90;99.90;;;;;;5046892;28;20595;-71
2021/10/27 11:50:14;;;;;;;19.17;11.55;;;14.80;99.90;;;;;;5050331;28;20238;-70
2021/10/27 11:52:42;;;;;;;10.50;8.55;;;14.70;99.90;;;;;;5051026;28;20253;-71
2021/10/27 11:55:11;;;;;;;12.70;8.82;;;14.90;99.90;;;;;;5050103;28;20715;-71
2021/10/27 11:57:39;;;;;;;16.70;11.07;;;15.20;99.90;;;;;;5050397;28;20288;-70
2021/10/27 12:00:09;;;;;;;13.18;9.50;;;15.30;99.90;;;;;;5050262;28;20211;-71
2021/10/27 12:02:52;;;;;;;13.40;10.13;;;15.60;99.90;;;;;;5050307;28;20215;-70
2021/10/27 12:05:26;;;;;;;10.18;7.90;;;15.80;99.90;;;;;;5050366;28;20215;-71
2021/10/27 12:11:12;;;;;;;6.47;5.13;;;15.90;99.90;;;;;;5050676;28;20209;-70
2021/10/27 12:13:54;;;;;;;7.28;5.22;;;16.00;99.90;;;;;;5034280;28;20298;-71
2021/10/27 12:16:56;;;;;;;11.45;6.00;;;16.10;99.90;;;;;;5037521;28;20227;-70
2021/10/27 12:19:28;;;;;;;7.38;5.93;;;16.20;99.90;;;;;;5050814;28;20214;-69
2021/10/27 12:21:59;;;;;;;5.75;5.03;;;16.30;99.90;;;;;;5049482;28;20257;-70
2021/10/27 12:24:29;;;;;;;6.00;4.75;;;16.40;99.90;;;;;;5047098;28;20210;-70
2021/10/27 12:27:00;;;;;;;7.03;5.97;;;16.50;99.90;;;;;;5049105;28;20701;-69
2021/10/27 12:29:28;;;;;;;7.18;5.97;;;16.50;99.90;;;;;;5050489;28;20234;-69
2021/10/27 12:32:10;;;;;;;9.20;6.07;;;16.70;99.90;;;;;;5047499;28;20260;-69
2021/10/27 12:34:47;;;;;;;5.25;4.15;;;16.70;99.90;;;;;;5050050;28;20677;-69
2021/10/27 12:37:31;;;;;;;6.03;4.25;;;16.60;99.90;;;;;;5048916;28;20275;-69
2021/10/27 12:40:19;;;;;;;4.75;3.47;;;16.80;99.90;;;;;;5051539;28;20203;-69
2021/10/27 12:42:48;;;;;;;5.15;3.25;;;16.90;99.90;;;;;;5054299;28;20206;-70
2021/10/27 12:45:15;;;;;;;3.95;3.15;;;17.00;99.90;;;;;;5052067;28;20739;-69
2021/10/27 12:47:42;;;;;;;3.20;2.90;;;17.00;99.90;;;;;;5054077;28;20252;-69
2021/10/27 12:50:13;;;;;;;4.07;3.08;;;17.00;99.90;;;;;;5053930;28;20256;-70
2021/10/27 12:52:45;;;;;;;3.67;3.22;;;17.00;99.90;;;;;;5049828;28;20194;-69
2021/10/27 12:55:27;;;;;;;3.13;2.60;;;17.10;99.90;;;;;;5044858;28;20745;-70
2021/10/27 12:58:01;;;;;;;5.35;3.10;;;17.20;99.90;;;;;;5051633;28;20586;-70
2021/10/27 13:00:35;;;;;;;2.60;2.40;;;17.50;99.90;;;;;;5053571;28;20690;-71
2021/10/27 13:06:05;;;;;;;2.90;1.98;;;17.60;99.90;;;;;;5051609;28;20210;-70
2021/10/27 13:11:31;;;;;;;2.08;1.88;;;17.80;99.90;;;;;;5052118;28;20210;-70
2021/10/27 13:14:05;;;;;;;4.28;2.20;;;18.00;99.90;;;;;;5044025;28;20754;-72
2021/10/27 13:16:59;;;;;;;2.97;2.28;;;17.90;99.90;;;;;;5052806;28;20295;-70
2021/10/27 13:22:24;;;;;;;2.72;1.27;;;18.10;99.90;;;;;;5037633;28;20218;-71
2021/10/27 13:30:21;;;;;;;7.03;1.50;;;18.70;99.90;;;;;;5052551;28;20252;-70
2021/10/27 13:32:53;;;;;;;1.48;0.90;;;18.90;99.90;;;;;;5053150;28;20207;-71
2021/10/27 13:35:20;;;;;;;1.33;1.23;;;19.00;99.90;;;;;;5053008;28;20257;-71
2021/10/27 13:37:49;;;;;;;0.93;0.90;;;19.00;99.90;;;;;;5053271;28;20242;-70
2021/10/27 13:40:16;;;;;;;2.47;0.80;;;19.00;99.90;;;;;;5054841;28;20207;-71
2021/10/27 13:42:47;;;;;;;1.77;1.20;;;18.90;99.90;;;;;;5058780;28;20211;-69
2021/10/27 13:45:19;;;;;;;3.72;0.90;;;19.10;99.90;;;;;;5046715;28;20212;-70
2021/10/27 13:47:58;;;;;;;1.58;0.90;;;19.30;99.90;;;;;;5052294;28;20237;-70
2021/10/27 13:59:11;;;;;;;2.03;1.30;;;19.30;99.90;;;;;;5052747;28;20206;-70
2021/10/27 14:07:14;;;;;;;1.58;0.93;;;19.20;99.90;;;;;;5052473;28;20210;-70
2021/10/27 14:09:45;;;;;;;1.65;0.93;;;19.30;99.90;;;;;;5049363;28;20206;-70
2021/10/27 14:12:23;;;;;;;1.80;1.25;;;19.20;99.90;;;;;;5052363;28;20203;-70
2021/10/27 14:15:03;;;;;;;2.15;1.05;;;19.20;99.90;;;;;;5052267;28;20211;-70
2021/10/27 14:17:50;;;;;;;4.53;1.73;;;19.20;99.90;;;;;;5044566;28;20288;-70
2021/10/27 14:59:04;;;;;;;2.45;1.17;;;19.10;99.90;;;;;;5050855;28;20229;-70
2021/10/27 15:20:47;;;;;;;2.10;0.75;;;18.90;99.90;;;;;;5051543;28;20202;-70
2021/10/27 15:23:17;;;;;;;2.00;0.98;;;18.90;99.90;;;;;;5050725;28;20589;-70
2021/10/27 15:26:05;;;;;;;1.25;1.05;;;18.90;99.90;;;;;;5050942;28;20652;-70
2021/10/27 15:28:45;;;;;;;3.30;0.85;;;18.90;99.90;;;;;;5048873;28;20203;-71
2021/10/27 15:31:24;;;;;;;2.75;0.82;;;18.80;99.90;;;;;;5046647;28;20202;-70
2021/10/27 15:42:25;;;;;;;2.55;1.08;;;18.60;99.90;;;;;;5048377;28;20276;-70
2021/10/27 15:50:37;;;;;;;1.80;0.85;;;18.40;99.90;;;;;;5040362;28;20194;-70
2021/10/27 15:53:07;;;;;;;2.45;0.93;;;18.40;99.90;;;;;;5050238;28;20677;-70
2021/10/27 15:55:34;;;;;;;1.30;0.93;;;18.20;99.90;;;;;;5044213;28;20678;-70
2021/10/27 15:58:02;;;;;;;1.10;0.80;;;18.30;99.90;;;;;;5038740;28;20238;-70
2021/10/27 16:00:29;;;;;;;0.68;0.68;;;18.30;99.90;;;;;;5045297;28;20618;-70
2021/10/27 16:02:57;;;;;;;1.35;0.70;;;18.00;99.90;;;;;;5050534;28;20272;-70
2021/10/27 16:05:26;;;;;;;1.00;0.90;;;18.00;99.90;;;;;;5050833;28;20210;-70
2021/10/27 16:07:53;;;;;;;2.67;0.93;;;18.00;99.90;;;;;;5050206;28;20202;-70
2021/10/27 16:10:22;;;;;;;1.08;0.80;;;18.00;99.90;;;;;;5049826;28;20784;-70
2021/10/27 16:12:49;;;;;;;1.80;1.60;;;17.90;99.90;;;;;;5044248;28;20214;-70
2021/10/27 16:15:23;;;;;;;2.20;1.30;;;17.90;99.90;;;;;;5043474;28;20302;-70
2021/10/27 16:17:52;;;;;;;1.65;1.35;;;17.90;99.90;;;;;;5049579;28;20296;-70
2021/10/27 16:20:20;;;;;;;2.00;1.08;;;17.80;99.90;;;;;;5037028;28;20701;-70
2021/10/27 16:22:49;;;;;;;2.78;1.30;;;17.60;99.90;;;;;;5049979;28;20210;-70
2021/10/27 16:25:16;;;;;;;1.58;1.38;;;17.50;99.90;;;;;;5049501;28;20234;-69
2021/10/27 16:27:43;;;;;;;1.42;1.08;;;17.40;99.90;;;;;;5050380;28;20203;-69
2021/10/27 16:30:11;;;;;;;3.03;1.23;;;17.40;99.90;;;;;;5049844;28;20202;-69
2021/10/27 16:32:38;;;;;;;1.85;1.30;;;17.30;99.90;;;;;;5050508;28;20260;-70
2021/10/27 16:35:06;;;;;;;2.28;1.45;;;17.20;99.90;;;;;;5049780;28;20284;-70
2021/10/27 16:37:35;;;;;;;1.67;1.02;;;17.20;99.90;;;;;;5050332;28;20306;-69
2021/10/27 16:40:04;;;;;;;1.65;1.40;;;17.10;99.90;;;;;;5049664;28;20237;-70
2021/10/27 16:42:34;;;;;;;1.80;1.23;;;17.00;99.90;;;;;;5050098;28;20207;-70
2021/10/27 16:45:01;;;;;;;2.90;1.75;;;16.80;99.90;;;;;;5049797;28;20206;-70
2021/10/27 16:47:28;;;;;;;2.00;1.75;;;16.70;99.90;;;;;;5050338;28;20210;-70